Time;durP1;ratioP1;P1;durP2;ratioP2;P2;SDS_P1;SDS_P2;PMS_P1;PMS_P2;Temp;Humidity;BMP_temperature;BMP_pressure;BME280_temperature;BME280_humidity;BME280_pressure;Samples;Min_cycle;Max_cycle;Signal;HPM_P1;HPM_P2
2023/12/27 00:00:29;;;;;;;12.00;4.38;;;6.10;99.90;;;;;;5071050;28;20044;-83
2023/12/27 00:02:55;;;;;;;6.28;3.72;;;6.00;99.90;;;;;;5074241;28;20021;-77
2023/12/27 00:05:21;;;;;;;5.22;3.80;;;6.00;99.90;;;;;;5074151;28;20055;-77
2023/12/27 00:07:47;;;;;;;6.03;3.70;;;6.00;99.90;;;;;;5073405;28;20070;-83
2023/12/27 00:10:12;;;;;;;6.68;3.80;;;6.00;99.90;;;;;;5056367;28;20129;-83
2023/12/27 00:12:38;;;;;;;7.63;4.25;;;6.00;99.90;;;;;;5074065;28;20024;-77
2023/12/27 00:15:04;;;;;;;5.15;3.90;;;5.90;99.90;;;;;;5074277;28;20032;-85
2023/12/27 00:17:30;;;;;;;7.78;3.50;;;5.90;99.90;;;;;;5073852;28;20113;-84
2023/12/27 00:19:55;;;;;;;6.07;3.58;;;5.90;99.90;;;;;;5056165;28;20056;-84
2023/12/27 00:22:21;;;;;;;8.77;4.07;;;5.90;99.90;;;;;;5055784;28;20359;-77
2023/12/27 00:24:47;;;;;;;6.25;3.08;;;5.90;99.90;;;;;;5055307;28;20444;-77
2023/12/27 00:27:12;;;;;;;12.15;4.65;;;5.90;99.90;;;;;;5055980;28;20032;-77
2023/12/27 00:29:38;;;;;;;6.82;3.53;;;5.90;99.90;;;;;;5073852;28;20021;-77
2023/12/27 00:32:08;;;;;;;7.65;3.58;;;5.80;99.90;;;;;;5055206;28;20102;-77
2023/12/27 00:34:34;;;;;;;10.23;4.18;;;5.90;99.90;;;;;;5055787;28;20032;-83
2023/12/27 00:37:00;;;;;;;9.18;3.05;;;5.80;99.90;;;;;;5073532;28;20031;-77
2023/12/27 00:39:26;;;;;;;5.65;2.90;;;5.80;99.90;;;;;;5073831;28;20028;-82
2023/12/27 00:41:52;;;;;;;3.53;2.33;;;5.80;99.90;;;;;;5055822;28;20016;-78
2023/12/27 00:44:19;;;;;;;4.90;2.85;;;5.90;99.90;;;;;;5073755;28;20027;-82
2023/12/27 00:46:44;;;;;;;11.35;3.20;;;5.90;99.90;;;;;;5055715;28;20016;-83
2023/12/27 00:49:10;;;;;;;4.28;2.58;;;5.90;99.90;;;;;;5073705;28;20474;-82
2023/12/27 00:51:36;;;;;;;3.58;2.40;;;5.90;99.90;;;;;;5072148;28;20070;-80
2023/12/27 00:54:01;;;;;;;5.22;2.47;;;5.90;99.90;;;;;;5073592;28;20024;-83
2023/12/27 00:56:27;;;;;;;5.93;2.65;;;5.90;99.90;;;;;;5055208;28;20103;-82
2023/12/27 00:58:53;;;;;;;5.38;2.97;;;5.90;99.90;;;;;;5073514;28;20051;-77
2023/12/27 01:01:19;;;;;;;5.53;3.38;;;5.90;99.90;;;;;;5055283;28;20032;-77
2023/12/27 01:03:44;;;;;;;4.65;2.60;;;6.00;99.90;;;;;;5072886;28;20123;-77
2023/12/27 01:06:11;;;;;;;4.55;2.25;;;5.90;99.90;;;;;;5056920;28;20029;-83
2023/12/27 01:08:37;;;;;;;3.88;2.45;;;5.90;99.90;;;;;;5073319;28;20493;-77
2023/12/27 01:11:03;;;;;;;2.95;2.65;;;6.00;99.90;;;;;;5072600;28;20440;-77
2023/12/27 01:13:28;;;;;;;5.10;2.50;;;6.00;99.90;;;;;;5055336;28;20021;-82
2023/12/27 01:15:55;;;;;;;5.10;2.80;;;6.00;99.90;;;;;;5055044;28;20032;-81
2023/12/27 01:18:20;;;;;;;3.05;2.42;;;6.00;99.90;;;;;;5055270;28;20501;-81
2023/12/27 01:20:46;;;;;;;5.43;2.63;;;6.00;99.90;;;;;;5072404;28;20072;-80
2023/12/27 01:23:12;;;;;;;7.13;3.10;;;6.00;99.90;;;;;;5073099;28;20044;-78
2023/12/27 01:25:38;;;;;;;4.05;2.33;;;6.00;99.90;;;;;;5054853;28;20020;-80
2023/12/27 01:28:03;;;;;;;3.05;2.13;;;5.90;99.90;;;;;;5054800;28;20466;-78
2023/12/27 01:30:30;;;;;;;5.47;2.28;;;5.90;99.90;;;;;;5054590;28;20055;-77
2023/12/27 01:32:55;;;;;;;3.45;2.33;;;5.90;99.90;;;;;;5064235;28;20036;-77
2023/12/27 01:35:21;;;;;;;3.53;2.10;;;5.90;99.90;;;;;;5057852;28;20524;-77
2023/12/27 01:37:47;;;;;;;8.18;2.55;;;5.90;99.90;;;;;;5054145;28;20074;-79
2023/12/27 01:40:14;;;;;;;6.78;2.67;;;5.90;99.90;;;;;;5072316;28;20036;-77
2023/12/27 01:42:40;;;;;;;3.97;2.58;;;5.90;99.90;;;;;;5054545;28;20542;-77
2023/12/27 01:45:06;;;;;;;3.63;2.28;;;5.90;99.30;;;;;;5071776;28;20106;-79
2023/12/27 01:47:33;;;;;;;5.47;2.30;;;5.90;99.40;;;;;;5054581;28;20352;-80
2023/12/27 01:49:59;;;;;;;5.68;2.88;;;5.90;99.00;;;;;;5072261;28;20095;-78
2023/12/27 01:52:26;;;;;;;3.88;2.38;;;5.90;98.00;;;;;;5072069;28;20158;-77
2023/12/27 01:54:52;;;;;;;4.65;2.00;;;5.90;99.00;;;;;;5054493;28;20028;-77
2023/12/27 01:57:18;;;;;;;3.22;1.80;;;5.80;97.90;;;;;;5072377;28;20463;-79
2023/12/27 01:59:45;;;;;;;3.00;2.10;;;5.80;97.40;;;;;;5054438;28;20028;-79
2023/12/27 02:02:13;;;;;;;4.15;2.05;;;5.80;98.30;;;;;;5072224;28;20016;-77
2023/12/27 02:04:39;;;;;;;2.45;1.58;;;5.80;96.80;;;;;;5072245;28;20028;-81
2023/12/27 02:07:05;;;;;;;3.95;1.88;;;5.80;99.60;;;;;;5053452;28;20914;-81
2023/12/27 02:09:32;;;;;;;3.42;2.00;;;5.70;99.10;;;;;;5054189;28;20060;-77
2023/12/27 02:11:57;;;;;;;5.25;2.00;;;5.70;99.60;;;;;;5053711;28;20054;-77
2023/12/27 02:14:23;;;;;;;5.15;2.05;;;5.70;98.90;;;;;;5072307;28;20025;-80
2023/12/27 02:16:49;;;;;;;3.03;1.80;;;5.70;99.90;;;;;;5071384;28;20029;-78
2023/12/27 02:19:21;;;;;;;2.58;1.98;;;5.70;99.90;;;;;;5054238;28;20025;-81
2023/12/27 02:21:49;;;;;;;5.15;1.90;;;5.60;99.90;;;;;;5072404;28;20078;-77
2023/12/27 02:24:22;;;;;;;3.22;2.10;;;5.60;99.90;;;;;;5065632;28;20025;-79
2023/12/27 02:26:48;;;;;;;3.33;1.60;;;5.60;99.20;;;;;;5053873;28;20029;-79
2023/12/27 02:29:14;;;;;;;3.03;1.85;;;5.60;99.40;;;;;;5072459;28;20031;-77
2023/12/27 02:31:40;;;;;;;3.22;1.95;;;5.50;99.70;;;;;;5055658;28;20052;-80
2023/12/27 02:34:06;;;;;;;2.88;1.80;;;5.50;99.90;;;;;;5072406;28;20024;-80
2023/12/27 02:36:32;;;;;;;2.22;1.80;;;5.50;99.90;;;;;;5053963;28;20025;-78
2023/12/27 02:38:57;;;;;;;4.47;1.60;;;5.50;99.90;;;;;;5055181;28;20028;-80
2023/12/27 02:41:23;;;;;;;1.20;1.20;;;5.30;99.90;;;;;;5071498;28;20086;-80
2023/12/27 02:43:48;;;;;;;4.22;1.90;;;5.00;99.90;;;;;;5054142;28;20504;-81
2023/12/27 02:46:14;;;;;;;2.78;1.42;;;4.80;99.90;;;;;;5053912;28;20025;-80
2023/12/27 02:48:40;;;;;;;1.63;1.40;;;4.70;99.90;;;;;;5053950;28;20063;-79
2023/12/27 02:51:05;;;;;;;1.58;1.48;;;4.60;99.90;;;;;;5072073;28;20021;-77
2023/12/27 02:53:31;;;;;;;4.25;2.00;;;4.40;99.90;;;;;;5071205;28;20051;-79
2023/12/27 02:55:57;;;;;;;1.60;1.50;;;4.40;99.90;;;;;;5055315;28;20025;-81
2023/12/27 02:58:23;;;;;;;3.25;1.65;;;4.30;99.90;;;;;;5071775;28;20025;-81
2023/12/27 03:00:49;;;;;;;2.05;1.30;;;4.20;99.90;;;;;;5075402;28;20040;-80
2023/12/27 03:03:15;;;;;;;3.05;1.80;;;4.30;99.90;;;;;;5063425;28;20016;-80
2023/12/27 03:05:41;;;;;;;1.45;1.20;;;4.30;99.90;;;;;;5075649;28;20086;-82
2023/12/27 03:08:06;;;;;;;1.85;1.30;;;4.20;99.90;;;;;;5075095;28;20498;-78
2023/12/27 03:10:32;;;;;;;3.15;1.15;;;4.20;99.90;;;;;;5075075;28;20032;-77
2023/12/27 03:12:57;;;;;;;2.80;1.10;;;4.20;99.90;;;;;;5075198;28;20033;-82
2023/12/27 03:15:23;;;;;;;1.17;1.08;;;4.20;99.90;;;;;;5057510;28;20389;-79
2023/12/27 03:17:49;;;;;;;1.35;1.05;;;4.10;99.90;;;;;;5056995;28;20032;-77
2023/12/27 03:20:14;;;;;;;2.60;1.30;;;4.00;99.90;;;;;;5057361;28;20035;-77
2023/12/27 03:22:40;;;;;;;1.90;1.20;;;3.90;99.90;;;;;;5055886;28;20032;-77
2023/12/27 03:25:06;;;;;;;3.92;1.67;;;3.90;99.90;;;;;;5074789;28;20103;-80
2023/12/27 03:27:31;;;;;;;3.90;1.98;;;3.80;99.90;;;;;;5057037;28;20027;-77
2023/12/27 03:29:57;;;;;;;2.05;1.65;;;3.80;99.90;;;;;;5057386;28;20020;-77
2023/12/27 03:32:25;;;;;;;1.45;1.33;;;3.70;99.90;;;;;;5074503;28;20570;-77
2023/12/27 03:34:51;;;;;;;2.53;1.77;;;3.60;99.90;;;;;;5070117;28;20086;-80
2023/12/27 03:37:17;;;;;;;2.45;1.73;;;3.60;99.90;;;;;;5059463;28;20017;-77
2023/12/27 03:39:43;;;;;;;3.20;1.63;;;3.50;99.90;;;;;;5074943;28;20575;-81
2023/12/27 03:42:10;;;;;;;4.22;1.83;;;3.40;99.90;;;;;;5074708;28;20017;-78
2023/12/27 03:44:35;;;;;;;2.13;1.48;;;3.40;99.90;;;;;;5057168;28;20545;-78
2023/12/27 03:47:01;;;;;;;1.98;1.60;;;3.40;99.90;;;;;;5056766;28;20099;-80
2023/12/27 03:49:26;;;;;;;2.33;1.88;;;3.30;99.90;;;;;;5073072;28;20124;-81
2023/12/27 03:51:52;;;;;;;1.80;1.70;;;3.30;99.90;;;;;;5065836;28;20013;-83
2023/12/27 03:54:18;;;;;;;5.38;1.95;;;3.30;99.90;;;;;;5073730;28;20021;-82
2023/12/27 03:56:45;;;;;;;2.63;2.33;;;3.30;99.90;;;;;;5074379;28;20013;-78
2023/12/27 03:59:10;;;;;;;3.45;1.90;;;3.30;99.90;;;;;;5074393;28;20032;-82
2023/12/27 04:01:37;;;;;;;2.50;1.50;;;3.30;99.90;;;;;;5074202;28;20559;-78
2023/12/27 04:04:02;;;;;;;4.78;1.98;;;3.30;99.90;;;;;;5074349;28;20536;-81
2023/12/27 04:06:28;;;;;;;2.67;1.30;;;3.40;99.90;;;;;;5056583;28;20112;-78
2023/12/27 04:08:54;;;;;;;1.20;1.10;;;3.40;99.90;;;;;;5073670;28;20025;-77
2023/12/27 04:11:19;;;;;;;2.55;1.20;;;3.40;99.90;;;;;;5074235;28;20017;-78
2023/12/27 04:13:45;;;;;;;2.17;1.13;;;3.40;99.90;;;;;;5064019;28;20552;-80
2023/12/27 04:16:11;;;;;;;1.38;1.20;;;3.30;99.90;;;;;;5056302;28;20099;-80
2023/12/27 04:18:37;;;;;;;1.35;1.23;;;3.30;99.90;;;;;;5056219;28;20199;-78
2023/12/27 04:21:02;;;;;;;1.88;1.35;;;3.30;99.90;;;;;;5073818;28;20125;-77
2023/12/27 04:23:28;;;;;;;1.85;1.10;;;3.20;99.90;;;;;;5055872;28;20025;-77
2023/12/27 04:25:54;;;;;;;2.35;1.10;;;3.20;99.90;;;;;;5056118;28;20028;-80
2023/12/27 04:28:20;;;;;;;2.05;1.20;;;3.20;99.90;;;;;;5055993;28;20054;-77
2023/12/27 04:30:45;;;;;;;1.98;0.95;;;3.20;99.90;;;;;;5056088;28;20059;-77
2023/12/27 04:33:11;;;;;;;2.75;1.00;;;3.20;99.90;;;;;;5052332;28;20494;-79
2023/12/27 04:35:37;;;;;;;1.60;1.10;;;3.20;99.90;;;;;;5053426;28;20017;-81
2023/12/27 04:38:03;;;;;;;1.42;0.93;;;3.20;99.90;;;;;;5051993;28;20028;-77
2023/12/27 04:40:28;;;;;;;1.10;1.10;;;3.10;99.90;;;;;;5050404;28;20115;-78
2023/12/27 04:42:54;;;;;;;3.53;1.20;;;3.10;99.90;;;;;;5048529;28;20028;-81
2023/12/27 04:45:20;;;;;;;2.53;1.63;;;3.10;99.90;;;;;;5051921;28;20028;-78
2023/12/27 04:47:45;;;;;;;1.98;1.35;;;3.00;99.90;;;;;;5055560;28;20029;-81
2023/12/27 04:50:11;;;;;;;3.22;1.45;;;3.00;99.90;;;;;;5073549;28;20531;-81
2023/12/27 04:52:37;;;;;;;1.90;1.38;;;2.90;99.90;;;;;;5073500;28;20052;-81
2023/12/27 04:55:03;;;;;;;2.25;1.13;;;2.90;99.90;;;;;;5073050;28;20025;-82
2023/12/27 04:57:28;;;;;;;1.98;1.05;;;2.80;99.90;;;;;;5055571;28;20486;-77
2023/12/27 04:59:54;;;;;;;2.00;1.20;;;2.80;99.90;;;;;;5055214;28;20023;-82
2023/12/27 05:02:20;;;;;;;1.85;1.20;;;2.70;99.90;;;;;;5055469;28;20020;-77
2023/12/27 05:04:45;;;;;;;2.03;1.10;;;2.70;99.90;;;;;;5054938;28;20100;-77
2023/12/27 05:07:11;;;;;;;1.08;1.05;;;2.60;99.90;;;;;;5073365;28;20508;-81
2023/12/27 05:09:36;;;;;;;2.22;1.10;;;2.60;99.90;;;;;;5072893;28;20565;-77
2023/12/27 05:12:03;;;;;;;2.45;0.95;;;2.60;99.90;;;;;;5073088;28;20461;-77
2023/12/27 05:14:28;;;;;;;0.95;0.95;;;2.60;99.90;;;;;;5054972;28;20089;-81
2023/12/27 05:16:55;;;;;;;2.45;1.08;;;2.60;99.90;;;;;;5055243;28;20477;-82
2023/12/27 05:19:21;;;;;;;1.23;0.93;;;2.60;99.90;;;;;;5055033;28;20058;-80
2023/12/27 05:21:47;;;;;;;2.63;1.27;;;2.70;99.90;;;;;;5073053;28;20401;-81
2023/12/27 05:24:12;;;;;;;2.67;1.80;;;2.70;99.90;;;;;;5072668;28;20025;-77
2023/12/27 05:26:38;;;;;;;2.80;1.13;;;2.70;99.90;;;;;;5055155;28;20417;-77
2023/12/27 05:29:04;;;;;;;3.78;2.22;;;2.70;99.90;;;;;;5054886;28;20013;-80
2023/12/27 05:31:30;;;;;;;114.65;45.25;;;2.70;99.90;;;;;;5072334;28;20151;-77
2023/12/27 05:33:55;;;;;;;109.18;41.30;;;2.70;99.90;;;;;;5054630;28;20070;-80
2023/12/27 05:36:21;;;;;;;36.22;14.10;;;2.60;99.90;;;;;;5054119;28;20492;-77
2023/12/27 05:38:47;;;;;;;155.95;56.47;;;2.60;99.90;;;;;;5054145;28;20021;-77
2023/12/27 05:41:13;;;;;;;77.55;25.45;;;2.50;99.90;;;;;;5072647;28;20043;-77
2023/12/27 05:43:38;;;;;;;130.43;46.50;;;2.50;99.90;;;;;;5054322;28;20494;-81
2023/12/27 05:46:04;;;;;;;47.47;15.90;;;2.40;99.90;;;;;;5071583;28;20012;-76
2023/12/27 05:48:31;;;;;;;26.17;8.10;;;2.40;99.90;;;;;;5072541;28;20021;-76
2023/12/27 05:50:56;;;;;;;43.55;8.88;;;2.40;99.90;;;;;;5054781;28;20551;-76
2023/12/27 05:53:22;;;;;;;11.52;3.85;;;2.40;99.90;;;;;;5071924;28;20028;-76
2023/12/27 05:55:48;;;;;;;8.63;3.28;;;2.40;99.90;;;;;;5072653;28;20016;-77
2023/12/27 05:58:13;;;;;;;34.58;12.90;;;2.40;99.90;;;;;;5053722;28;20020;-77
2023/12/27 06:00:39;;;;;;;64.03;20.88;;;2.40;99.90;;;;;;5054206;28;20543;-76
2023/12/27 06:03:05;;;;;;;111.53;28.13;;;2.40;99.90;;;;;;5054667;28;20504;-78
2023/12/27 06:05:30;;;;;;;15.00;3.63;;;2.40;99.90;;;;;;5072221;28;20132;-77
2023/12/27 06:07:56;;;;;;;13.15;3.92;;;2.40;99.90;;;;;;5053822;28;20016;-78
2023/12/27 06:10:21;;;;;;;6.47;2.42;;;2.40;99.90;;;;;;5072258;28;20115;-81
2023/12/27 06:12:47;;;;;;;11.57;3.05;;;2.40;99.90;;;;;;5072104;28;20024;-81
2023/12/27 06:15:13;;;;;;;17.98;5.47;;;2.40;99.90;;;;;;5054140;28;20024;-77
2023/12/27 06:17:39;;;;;;;19.02;6.45;;;2.40;99.90;;;;;;5071459;28;20021;-78
2023/12/27 06:20:07;;;;;;;197.60;66.85;;;2.40;99.90;;;;;;5072295;28;20036;-77
2023/12/27 06:22:33;;;;;;;22.00;6.82;;;2.30;99.90;;;;;;5072024;28;20508;-79
2023/12/27 06:24:59;;;;;;;23.52;4.72;;;2.30;99.90;;;;;;5072104;28;20474;-80
2023/12/27 06:27:25;;;;;;;14.38;4.55;;;2.20;99.90;;;;;;5072121;28;20037;-77
2023/12/27 06:29:50;;;;;;;14.38;4.60;;;2.20;99.90;;;;;;5072483;28;20033;-82
2023/12/27 06:32:16;;;;;;;58.42;19.77;;;2.20;99.90;;;;;;5057456;28;20047;-80
2023/12/27 06:34:42;;;;;;;22.15;9.18;;;2.10;99.90;;;;;;5058427;28;20040;-79
2023/12/27 06:37:07;;;;;;;13.25;3.50;;;2.10;99.90;;;;;;5075477;28;20055;-80
2023/12/27 06:39:33;;;;;;;15.90;4.90;;;2.00;99.90;;;;;;5074484;28;20093;-77
2023/12/27 06:41:58;;;;;;;15.05;3.75;;;2.00;99.90;;;;;;5074877;28;20033;-77
2023/12/27 06:44:24;;;;;;;39.67;14.90;;;2.00;99.90;;;;;;5074285;28;20020;-77
2023/12/27 06:46:50;;;;;;;50.75;20.08;;;1.90;99.90;;;;;;5055675;28;20020;-82
2023/12/27 06:49:15;;;;;;;39.72;9.77;;;1.90;99.90;;;;;;5056180;28;20505;-82
2023/12/27 06:51:41;;;;;;;21.63;6.50;;;1.80;99.90;;;;;;5073463;28;20104;-77
2023/12/27 06:54:07;;;;;;;21.90;5.70;;;1.90;99.90;;;;;;5055819;28;20035;-77
2023/12/27 06:56:32;;;;;;;33.63;10.00;;;1.90;99.90;;;;;;5073493;28;20033;-80
2023/12/27 06:58:58;;;;;;;41.95;20.95;;;1.80;99.90;;;;;;5064361;28;20079;-77
2023/12/27 07:01:24;;;;;;;23.83;7.50;;;1.80;99.90;;;;;;5076345;28;20043;-77
2023/12/27 07:03:50;;;;;;;41.53;12.45;;;1.80;99.90;;;;;;5058711;28;20079;-77
2023/12/27 07:06:17;;;;;;;19.42;6.38;;;1.90;99.90;;;;;;5059914;28;20008;-76
2023/12/27 07:08:43;;;;;;;9.27;4.03;;;1.80;99.90;;;;;;5074911;28;20029;-77
2023/12/27 07:11:15;;;;;;;31.17;10.93;;;1.90;99.90;;;;;;5076009;28;20020;-77
2023/12/27 07:13:42;;;;;;;15.65;8.68;;;1.90;99.90;;;;;;5076762;28;20027;-85
2023/12/27 07:16:07;;;;;;;20.27;7.88;;;1.90;99.90;;;;;;5058381;28;20044;-87
2023/12/27 07:18:33;;;;;;;12.98;4.32;;;1.90;99.90;;;;;;5077872;28;20047;-78
2023/12/27 07:20:59;;;;;;;17.63;7.20;;;1.90;99.90;;;;;;5076021;28;20078;-78
2023/12/27 07:23:24;;;;;;;11.98;4.47;;;1.90;99.90;;;;;;5057889;28;20036;-77
2023/12/27 07:25:50;;;;;;;12.05;5.00;;;2.00;99.90;;;;;;5074619;28;20024;-77
2023/12/27 07:28:16;;;;;;;7.57;4.35;;;2.00;99.90;;;;;;5057637;28;20045;-77
2023/12/27 07:30:42;;;;;;;7.45;2.90;;;2.00;99.90;;;;;;5075584;28;20028;-84
2023/12/27 07:33:07;;;;;;;9.15;2.78;;;2.10;99.90;;;;;;5075676;28;20044;-78
2023/12/27 07:35:33;;;;;;;6.95;3.95;;;2.10;99.90;;;;;;5076484;28;20028;-85
2023/12/27 07:38:00;;;;;;;55.25;23.67;;;2.20;99.90;;;;;;5057050;28;20032;-77
2023/12/27 07:40:27;;;;;;;15.57;4.40;;;2.20;99.90;;;;;;5075779;28;20064;-85
2023/12/27 07:42:55;;;;;;;3.40;3.08;;;2.20;99.90;;;;;;5066770;28;20023;-84
2023/12/27 07:45:22;;;;;;;11.77;3.97;;;2.20;99.90;;;;;;5059386;28;20386;-78
2023/12/27 07:47:48;;;;;;;10.60;3.42;;;2.30;99.90;;;;;;5056254;28;20066;-78
2023/12/27 07:50:14;;;;;;;7.20;3.03;;;2.30;99.90;;;;;;5089212;28;20116;-77
2023/12/27 07:52:39;;;;;;;5.75;3.15;;;2.30;99.90;;;;;;5062874;28;20020;-77
2023/12/27 07:55:05;;;;;;;10.13;4.15;;;2.40;99.90;;;;;;5054226;28;20539;-77
2023/12/27 07:57:32;;;;;;;6.95;2.63;;;2.40;99.90;;;;;;5073023;28;20370;-88
2023/12/27 07:59:58;;;;;;;4.53;2.80;;;2.40;99.90;;;;;;5054328;28;20024;-77
2023/12/27 08:02:24;;;;;;;7.47;4.90;;;2.40;99.90;;;;;;5072480;28;20024;-82
2023/12/27 08:04:49;;;;;;;10.55;3.85;;;2.50;99.90;;;;;;5054166;28;20035;-78
2023/12/27 08:07:15;;;;;;;6.47;3.58;;;2.50;99.90;;;;;;5053566;28;20481;-77
2023/12/27 08:09:41;;;;;;;7.57;3.17;;;2.50;99.90;;;;;;5056319;28;20036;-80
2023/12/27 08:12:07;;;;;;;9.10;3.20;;;2.50;99.90;;;;;;5074012;28;20020;-80
2023/12/27 08:14:32;;;;;;;8.63;3.90;;;2.60;99.90;;;;;;5055577;28;20025;-83
2023/12/27 08:16:58;;;;;;;6.53;2.55;;;2.60;99.90;;;;;;5074187;28;20021;-84
2023/12/27 08:19:24;;;;;;;5.78;3.05;;;2.70;99.90;;;;;;5073853;28;20035;-78
2023/12/27 08:21:49;;;;;;;5.70;3.63;;;2.70;99.90;;;;;;5074355;28;20036;-78
2023/12/27 08:24:15;;;;;;;9.18;2.83;;;2.80;99.90;;;;;;5055503;28;20035;-77
2023/12/27 08:26:41;;;;;;;6.95;5.30;;;2.80;99.90;;;;;;5073837;28;20386;-78
2023/12/27 08:29:07;;;;;;;7.05;3.85;;;2.80;99.90;;;;;;5055497;28;20107;-78
2023/12/27 08:31:34;;;;;;;10.52;2.80;;;2.90;99.90;;;;;;5073328;28;20032;-78
2023/12/27 08:34:02;;;;;;;4.60;2.00;;;2.90;99.90;;;;;;5072746;28;20721;-78
2023/12/27 08:36:29;;;;;;;3.00;2.60;;;2.90;99.90;;;;;;5074687;28;20052;-78
2023/12/27 08:38:55;;;;;;;6.93;2.70;;;3.00;99.90;;;;;;5059401;28;20474;-78
2023/12/27 08:41:24;;;;;;;6.95;2.50;;;3.00;99.90;;;;;;5078418;28;20081;-78
2023/12/27 08:43:53;;;;;;;4.20;2.28;;;3.00;99.90;;;;;;5046994;28;20029;-78
2023/12/27 08:46:20;;;;;;;3.85;2.33;;;3.00;99.90;;;;;;5056089;28;20051;-79
2023/12/27 08:48:46;;;;;;;3.35;2.05;;;3.10;99.90;;;;;;5076837;28;20393;-78
2023/12/27 08:51:12;;;;;;;3.25;2.08;;;3.10;99.90;;;;;;5058864;28;20032;-78
2023/12/27 08:53:38;;;;;;;5.63;2.60;;;3.20;99.90;;;;;;5076703;28;20107;-78
2023/12/27 08:56:05;;;;;;;6.07;2.50;;;3.20;99.90;;;;;;5054625;28;20111;-78
2023/12/27 08:58:31;;;;;;;3.92;2.42;;;3.30;99.90;;;;;;5070503;28;20505;-77
2023/12/27 09:00:58;;;;;;;5.00;2.50;;;3.30;99.90;;;;;;5072868;28;20028;-77
2023/12/27 09:03:24;;;;;;;5.13;2.05;;;3.40;99.90;;;;;;5054931;28;20125;-78
2023/12/27 09:05:50;;;;;;;5.63;2.75;;;3.40;99.90;;;;;;5054925;28;20017;-77
2023/12/27 09:08:16;;;;;;;4.03;2.05;;;3.40;99.90;;;;;;5070798;28;20441;-78
2023/12/27 09:10:42;;;;;;;6.82;2.28;;;3.40;99.90;;;;;;5072507;28;20032;-77
2023/12/27 09:13:08;;;;;;;5.93;2.35;;;3.40;99.90;;;;;;5051265;28;20478;-77
2023/12/27 09:15:33;;;;;;;10.38;2.38;;;3.40;99.90;;;;;;5070832;28;20047;-77
2023/12/27 09:17:59;;;;;;;11.27;3.20;;;3.40;99.90;;;;;;5053898;28;20429;-77
2023/12/27 09:20:25;;;;;;;7.03;2.70;;;3.40;99.90;;;;;;5071962;28;20490;-77
2023/12/27 09:22:50;;;;;;;6.05;2.10;;;3.40;99.90;;;;;;5054252;28;20162;-77
2023/12/27 09:25:16;;;;;;;4.18;2.28;;;3.50;99.90;;;;;;5066969;28;20043;-77
2023/12/27 09:27:42;;;;;;;9.15;2.33;;;3.50;99.90;;;;;;5053818;28;20526;-76
2023/12/27 09:30:08;;;;;;;6.38;2.17;;;3.60;99.90;;;;;;5054526;28;20024;-76
2023/12/27 09:32:34;;;;;;;7.10;2.40;;;3.70;99.90;;;;;;5071688;28;20055;-75
2023/12/27 09:35:00;;;;;;;6.45;2.13;;;3.70;99.90;;;;;;5070707;28;20536;-77
2023/12/27 09:37:26;;;;;;;4.07;1.98;;;3.70;99.90;;;;;;5070683;28;20066;-77
2023/12/27 09:39:52;;;;;;;3.50;1.92;;;3.70;99.90;;;;;;5055013;28;20036;-77
2023/12/27 09:42:17;;;;;;;6.10;2.30;;;3.80;99.90;;;;;;5053186;28;20474;-77
2023/12/27 09:44:45;;;;;;;4.25;1.90;;;3.80;99.90;;;;;;5053628;28;20021;-77
2023/12/27 09:47:14;;;;;;;5.35;2.13;;;3.80;99.90;;;;;;5071317;28;20016;-77
2023/12/27 09:49:40;;;;;;;6.88;2.42;;;3.70;99.90;;;;;;5070892;28;20100;-77
2023/12/27 09:52:07;;;;;;;6.35;4.60;;;3.80;99.90;;;;;;5053916;28;20036;-77
2023/12/27 09:54:33;;;;;;;4.90;2.22;;;3.90;99.90;;;;;;5069485;28;20203;-78
2023/12/27 09:56:59;;;;;;;9.55;2.53;;;4.00;99.90;;;;;;5053368;28;20394;-77
2023/12/27 09:59:28;;;;;;;6.85;2.33;;;4.10;99.90;;;;;;5052546;28;20516;-78
2023/12/27 10:01:59;;;;;;;6.13;2.55;;;4.00;99.90;;;;;;5053237;28;20037;-78
2023/12/27 10:04:44;;;;;;;7.25;3.42;;;4.10;99.90;;;;;;5071056;28;20021;-78
2023/12/27 10:07:12;;;;;;;5.38;2.80;;;4.20;99.90;;;;;;5071345;28;20024;-77
2023/12/27 10:09:40;;;;;;;4.70;2.80;;;4.10;99.90;;;;;;5070707;28;20020;-77
2023/12/27 10:12:07;;;;;;;5.20;2.28;;;4.10;99.90;;;;;;5053748;28;20048;-77
2023/12/27 10:14:35;;;;;;;4.32;2.28;;;4.20;99.90;;;;;;5053251;28;20029;-77
2023/12/27 10:17:03;;;;;;;3.92;2.17;;;4.20;99.90;;;;;;5072041;28;20100;-78
2023/12/27 10:19:44;;;;;;;2.50;1.80;;;4.30;99.90;;;;;;5071881;28;20074;-78
2023/12/27 10:22:12;;;;;;;6.38;2.65;;;4.20;99.90;;;;;;5072060;28;20033;-77
2023/12/27 10:24:38;;;;;;;7.88;2.58;;;4.20;99.90;;;;;;5072103;28;20059;-77
2023/12/27 10:27:04;;;;;;;5.10;1.90;;;4.10;99.90;;;;;;5052415;28;20038;-77
2023/12/27 10:29:32;;;;;;;5.25;2.50;;;4.00;97.60;;;;;;5053104;28;20017;-78
2023/12/27 10:32:02;;;;;;;4.72;2.30;;;4.00;97.30;;;;;;5052233;28;20131;-77
2023/12/27 10:34:28;;;;;;;4.80;2.03;;;4.10;99.90;;;;;;5069051;28;20017;-77
2023/12/27 10:36:59;;;;;;;5.32;2.22;;;4.10;99.60;;;;;;5054024;28;20044;-77
2023/12/27 10:39:25;;;;;;;5.95;2.08;;;4.00;97.20;;;;;;5070534;28;20021;-77
2023/12/27 10:41:54;;;;;;;5.72;2.38;;;4.10;98.30;;;;;;5051618;28;20048;-76
2023/12/27 10:44:21;;;;;;;6.32;1.58;;;4.10;97.90;;;;;;5073829;28;20020;-77
2023/12/27 10:46:48;;;;;;;7.57;2.35;;;4.10;98.30;;;;;;5073045;28;20028;-77
2023/12/27 10:49:15;;;;;;;8.65;2.55;;;4.20;97.30;;;;;;5071702;28;20044;-77
2023/12/27 10:51:41;;;;;;;21.63;5.85;;;4.20;96.80;;;;;;5068861;28;20103;-77
2023/12/27 10:54:08;;;;;;;7.85;2.50;;;4.30;99.00;;;;;;5053428;28;20036;-78
2023/12/27 10:56:38;;;;;;;3.33;2.10;;;4.30;94.20;;;;;;5051724;28;20025;-77
2023/12/27 10:59:05;;;;;;;4.55;2.38;;;4.30;92.70;;;;;;5045662;28;20021;-78
2023/12/27 11:01:37;;;;;;;36.40;10.50;;;4.30;91.30;;;;;;5053270;28;20513;-77
2023/12/27 11:04:09;;;;;;;6.00;2.40;;;4.40;92.70;;;;;;5052718;28;20019;-77
2023/12/27 11:06:39;;;;;;;;;;;4.40;92.50;;;;;;5072844;28;20055;-77
2023/12/27 11:09:07;;;;;;;163.07;48.47;;;4.50;93.80;;;;;;5073062;28;19908;-77
2023/12/27 11:11:38;;;;;;;236.27;72.72;;;4.60;94.30;;;;;;5071510;28;20386;-77
2023/12/27 11:14:05;;;;;;;16.30;5.68;;;4.60;93.30;;;;;;5052625;28;20032;-77
2023/12/27 11:16:34;;;;;;;184.35;58.63;;;4.60;92.40;;;;;;5054266;28;20017;-77
2023/12/27 11:19:02;;;;;;;97.97;34.30;;;4.70;93.40;;;;;;5074938;28;20351;-77
2023/12/27 11:21:31;;;;;;;51.53;17.88;;;4.80;93.30;;;;;;5074585;28;20037;-77
2023/12/27 11:23:57;;;;;;;71.85;25.08;;;4.80;91.70;;;;;;5074369;28;20028;-77
2023/12/27 11:26:23;;;;;;;64.63;23.75;;;4.80;90.50;;;;;;5074978;28;20047;-77
2023/12/27 11:28:49;;;;;;;97.65;33.17;;;4.80;88.90;;;;;;5074512;28;20039;-77
2023/12/27 11:31:16;;;;;;;74.97;27.48;;;4.70;87.40;;;;;;5074828;28;20032;-77
2023/12/27 11:33:43;;;;;;;33.55;11.45;;;4.60;86.50;;;;;;5056160;28;20041;-77
2023/12/27 11:36:10;;;;;;;39.58;12.52;;;4.60;87.20;;;;;;5056346;28;20474;-77
2023/12/27 11:38:37;;;;;;;44.83;18.17;;;4.60;85.00;;;;;;5058874;28;20051;-77
2023/12/27 11:41:03;;;;;;;34.10;12.52;;;4.60;84.60;;;;;;5077670;28;20071;-77
2023/12/27 11:43:52;;;;;;;42.15;16.20;;;4.60;84.40;;;;;;5056771;28;20021;-76
2023/12/27 11:46:25;;;;;;;33.33;12.90;;;4.60;84.00;;;;;;5068391;28;20042;-77
2023/12/27 11:48:51;;;;;;;42.00;15.95;;;4.60;84.40;;;;;;5075050;28;20017;-77
2023/12/27 11:51:38;;;;;;;15.40;5.93;;;4.50;83.50;;;;;;5056486;28;20039;-77
2023/12/27 11:54:07;;;;;;;11.65;4.68;;;4.50;84.10;;;;;;5076626;28;20032;-76
2023/12/27 11:56:37;;;;;;;44.20;19.48;;;4.40;86.10;;;;;;5058837;28;20281;-76
2023/12/27 11:59:06;;;;;;;27.15;11.98;;;4.40;87.60;;;;;;5059929;28;20631;-76
2023/12/27 12:01:36;;;;;;;21.13;8.38;;;4.40;89.90;;;;;;5072881;28;20048;-76
2023/12/27 12:04:30;;;;;;;33.33;14.70;;;4.40;91.80;;;;;;5073973;28;20024;-77
2023/12/27 12:06:58;;;;;;;18.88;8.60;;;4.50;91.50;;;;;;5074890;28;20043;-76
2023/12/27 12:09:36;;;;;;;17.27;7.57;;;4.60;91.90;;;;;;5073561;28;20025;-76
2023/12/27 12:12:22;;;;;;;56.38;21.95;;;4.60;90.90;;;;;;5056936;28;20482;-77
2023/12/27 12:14:51;;;;;;;21.92;9.93;;;4.60;89.00;;;;;;5080786;28;20067;-77
2023/12/27 12:17:19;;;;;;;27.05;12.38;;;4.60;89.50;;;;;;5068931;28;20043;-77
2023/12/27 12:19:46;;;;;;;34.03;15.70;;;4.70;90.90;;;;;;5073117;28;20131;-77
2023/12/27 12:22:13;;;;;;;18.85;7.50;;;4.80;90.90;;;;;;5072053;28;20097;-77
2023/12/27 12:24:39;;;;;;;33.63;13.60;;;4.80;88.20;;;;;;5055415;28;20025;-77
2023/12/27 12:27:05;;;;;;;26.25;11.27;;;4.80;84.70;;;;;;5057965;28;20107;-77
2023/12/27 12:29:31;;;;;;;23.63;11.05;;;4.80;82.20;;;;;;5071732;28;20024;-77
2023/12/27 12:31:58;;;;;;;10.35;5.70;;;4.70;81.20;;;;;;5071583;28;20059;-77
2023/12/27 12:34:25;;;;;;;17.02;7.38;;;4.70;80.20;;;;;;5054766;28;20119;-76
2023/12/27 12:36:51;;;;;;;14.32;6.97;;;4.70;80.30;;;;;;5054662;28;20137;-75
2023/12/27 12:39:19;;;;;;;12.35;6.90;;;4.70;81.00;;;;;;5072603;28;20072;-78
2023/12/27 12:41:45;;;;;;;16.70;7.25;;;4.70;81.20;;;;;;5072264;28;20051;-76
2023/12/27 12:44:11;;;;;;;20.13;7.07;;;4.70;81.50;;;;;;5054096;28;20478;-76
2023/12/27 12:46:39;;;;;;;23.65;8.73;;;4.70;80.40;;;;;;5073983;28;20531;-76
2023/12/27 12:49:06;;;;;;;33.53;12.10;;;4.70;80.00;;;;;;5068100;28;20078;-76